Time;durP1;ratioP1;P1;durP2;ratioP2;P2;SDS_P1;SDS_P2;PMS_P1;PMS_P2;Temp;Humidity;BMP_temperature;BMP_pressure;BME280_temperature;BME280_humidity;BME280_pressure;Samples;Min_cycle;Max_cycle;Signal;HPM_P1;HPM_P2
2021/10/03 00:01:37;;;;;;;11.80;10.68;;;;;;;;;;4981601;28;20072;-41
2021/10/03 00:04:03;;;;;;;12.25;11.13;;;;;;;;;;4981862;28;20102;-46
2021/10/03 00:06:28;;;;;;;11.00;10.00;;;;;;;;;;4980179;28;20514;-43
2021/10/03 00:08:54;;;;;;;14.63;11.15;;;;;;;;;;4980229;28;20023;-48
2021/10/03 00:11:20;;;;;;;13.02;11.93;;;;;;;;;;4990233;28;20812;-44
2021/10/03 00:13:45;;;;;;;12.60;11.55;;;;;;;;;;4980584;28;20044;-42
2021/10/03 00:16:11;;;;;;;13.82;10.07;;;;;;;;;;4984431;28;20022;-43
2021/10/03 00:18:36;;;;;;;19.10;13.75;;;;;;;;;;4975376;28;20343;-41
2021/10/03 00:21:02;;;;;;;11.52;10.35;;;;;;;;;;4981056;28;20191;-47
2021/10/03 00:23:29;;;;;;;13.32;11.35;;;;;;;;;;4985128;28;20026;-43
2021/10/03 00:25:55;;;;;;;11.90;9.45;;;;;;;;;;4984233;28;20150;-44
2021/10/03 00:28:20;;;;;;;14.50;11.15;;;;;;;;;;4990930;28;20105;-42
2021/10/03 00:30:46;;;;;;;11.23;9.30;;;;;;;;;;4985768;28;20023;-42
2021/10/03 00:33:11;;;;;;;20.30;10.77;;;;;;;;;;4989037;28;20383;-41
2021/10/03 00:35:37;;;;;;;13.18;10.50;;;;;;;;;;4988741;28;20036;-44
2021/10/03 00:38:04;;;;;;;11.02;9.95;;;;;;;;;;4987060;28;20117;-44
2021/10/03 00:40:31;;;;;;;11.20;10.10;;;;;;;;;;4983160;28;20027;-44
2021/10/03 00:42:57;;;;;;;11.82;10.32;;;;;;;;;;4990106;28;20055;-43
2021/10/03 00:45:22;;;;;;;11.63;10.52;;;;;;;;;;4988003;28;20665;-44
2021/10/03 00:47:47;;;;;;;10.60;9.50;;;;;;;;;;4989428;28;20018;-44
2021/10/03 00:50:13;;;;;;;10.88;9.35;;;;;;;;;;4987169;28;20030;-44
2021/10/03 00:52:40;;;;;;;11.30;10.07;;;;;;;;;;4987822;28;20114;-44
2021/10/03 00:55:05;;;;;;;11.50;10.27;;;;;;;;;;4988154;28;20030;-44
2021/10/03 00:57:31;;;;;;;10.88;9.65;;;;;;;;;;4983245;28;20783;-45
2021/10/03 00:59:56;;;;;;;14.02;12.25;;;;;;;;;;4988276;28;20026;-45
2021/10/03 01:02:21;;;;;;;13.35;11.68;;;;;;;;;;4977812;28;20090;-45
2021/10/03 01:04:47;;;;;;;11.50;10.50;;;;;;;;;;4985371;28;20053;-44
2021/10/03 01:07:12;;;;;;;10.98;9.98;;;;;;;;;;4987798;28;20058;-42
2021/10/03 01:09:37;;;;;;;12.75;11.40;;;;;;;;;;4982350;28;20572;-46
2021/10/03 01:12:03;;;;;;;13.18;11.77;;;;;;;;;;4991227;28;20027;-42
2021/10/03 01:14:28;;;;;;;10.63;9.48;;;;;;;;;;4979365;28;20531;-45
2021/10/03 01:16:54;;;;;;;12.25;11.07;;;;;;;;;;4984519;28;20036;-45
2021/10/03 01:19:20;;;;;;;11.00;9.90;;;;;;;;;;4988560;28;20031;-42
2021/10/03 01:21:45;;;;;;;10.60;9.60;;;;;;;;;;4984958;28;20038;-46
2021/10/03 01:24:11;;;;;;;10.98;9.95;;;;;;;;;;4984999;28;20489;-44
2021/10/03 01:26:36;;;;;;;9.52;8.65;;;;;;;;;;4983166;28;20511;-47
2021/10/03 01:29:02;;;;;;;11.77;10.10;;;;;;;;;;4986138;28;20661;-43
2021/10/03 01:31:29;;;;;;;15.00;9.70;;;;;;;;;;4987425;28;20501;-42
2021/10/03 01:33:54;;;;;;;9.90;9.02;;;;;;;;;;4988641;28;20146;-42
2021/10/03 01:36:20;;;;;;;10.93;9.90;;;;;;;;;;4984256;28;20924;-42
2021/10/03 01:38:46;;;;;;;12.32;11.15;;;;;;;;;;4982007;28;20063;-41
2021/10/03 01:41:11;;;;;;;13.23;11.95;;;;;;;;;;4988123;28;20022;-42
2021/10/03 01:43:36;;;;;;;14.23;11.70;;;;;;;;;;4983460;28;20395;-44
2021/10/03 01:46:02;;;;;;;11.55;10.30;;;;;;;;;;4989538;28;20031;-41
2021/10/03 01:48:28;;;;;;;12.75;11.48;;;;;;;;;;4992055;28;20022;-44
2021/10/03 01:50:54;;;;;;;12.10;10.88;;;;;;;;;;4988225;28;20023;-41
2021/10/03 01:53:23;;;;;;;12.60;11.30;;;;;;;;;;4987856;28;20029;-41
2021/10/03 01:55:48;;;;;;;11.52;9.88;;;;;;;;;;4988276;28;20569;-43
2021/10/03 01:58:15;;;;;;;11.57;10.57;;;;;;;;;;4988984;28;20030;-43
2021/10/03 02:00:41;;;;;;;12.18;10.35;;;;;;;;;;4986607;28;20065;-47
2021/10/03 02:03:07;;;;;;;14.13;12.77;;;;;;;;;;4984911;28;20037;-44
2021/10/03 02:05:39;;;;;;;12.95;11.82;;;;;;;;;;4990629;28;20027;-46
2021/10/03 02:08:05;;;;;;;11.88;10.02;;;;;;;;;;4989053;28;20030;-46
2021/10/03 02:10:31;;;;;;;11.70;10.32;;;;;;;;;;4989774;28;20027;-46
2021/10/03 02:12:56;;;;;;;11.63;10.32;;;;;;;;;;4987186;28;20026;-41
2021/10/03 02:15:22;;;;;;;11.90;10.65;;;;;;;;;;4990131;28;20019;-41
2021/10/03 02:17:47;;;;;;;12.73;11.43;;;;;;;;;;4984977;28;20038;-43
2021/10/03 02:20:14;;;;;;;11.48;10.27;;;;;;;;;;4988839;28;20460;-42
2021/10/03 02:22:39;;;;;;;14.38;10.73;;;;;;;;;;4987968;28;20030;-42
2021/10/03 02:25:05;;;;;;;12.55;11.00;;;;;;;;;;4990981;28;20025;-42
2021/10/03 02:27:30;;;;;;;12.70;10.98;;;;;;;;;;4985363;28;20026;-43
2021/10/03 02:29:55;;;;;;;14.85;13.25;;;;;;;;;;4984075;28;20065;-43
2021/10/03 02:32:21;;;;;;;15.95;11.15;;;;;;;;;;4978377;28;20030;-42
2021/10/03 02:34:46;;;;;;;11.15;10.00;;;;;;;;;;4982123;28;20022;-43
2021/10/03 02:37:11;;;;;;;11.55;10.45;;;;;;;;;;4988195;28;20505;-44
2021/10/03 02:39:37;;;;;;;10.13;9.27;;;;;;;;;;4986716;28;20046;-47
2021/10/03 02:42:02;;;;;;;13.40;11.10;;;;;;;;;;4987971;28;20034;-43
2021/10/03 02:44:27;;;;;;;12.38;10.13;;;;;;;;;;4986952;28;20518;-42
2021/10/03 02:46:53;;;;;;;9.70;8.70;;;;;;;;;;4988899;28;20045;-42
2021/10/03 02:49:20;;;;;;;11.13;9.95;;;;;;;;;;4981797;28;20452;-45
2021/10/03 02:51:45;;;;;;;24.02;11.43;;;;;;;;;;4984654;28;20547;-42
2021/10/03 02:54:11;;;;;;;9.95;8.82;;;;;;;;;;4991661;28;20033;-42
2021/10/03 02:56:36;;;;;;;18.42;11.02;;;;;;;;;;4986461;28;20046;-41
2021/10/03 02:59:02;;;;;;;11.85;10.80;;;;;;;;;;4987457;28;20109;-41
2021/10/03 03:01:27;;;;;;;9.75;8.65;;;;;;;;;;4986471;28;20660;-42
2021/10/03 03:03:52;;;;;;;10.88;9.88;;;;;;;;;;4987510;28;20711;-41
2021/10/03 03:06:18;;;;;;;11.77;10.23;;;;;;;;;;4989616;28;20577;-43
2021/10/03 03:08:43;;;;;;;11.20;10.18;;;;;;;;;;4992973;28;20018;-43
2021/10/03 03:11:08;;;;;;;10.43;9.52;;;;;;;;;;4990538;28;20044;-43
2021/10/03 03:13:34;;;;;;;10.23;9.23;;;;;;;;;;4988638;28;20041;-42
2021/10/03 03:15:59;;;;;;;9.32;8.15;;;;;;;;;;4984872;28;20057;-41
2021/10/03 03:18:25;;;;;;;10.65;9.65;;;;;;;;;;4991354;28;20155;-41
2021/10/03 03:20:50;;;;;;;8.07;7.47;;;;;;;;;;4989799;28;20026;-43
2021/10/03 03:23:16;;;;;;;9.85;8.85;;;;;;;;;;4988129;28;20466;-43
2021/10/03 03:25:41;;;;;;;9.88;8.45;;;;;;;;;;4985480;28;20147;-42
2021/10/03 03:28:07;;;;;;;17.98;10.07;;;;;;;;;;4992478;28;20018;-47
2021/10/03 03:30:33;;;;;;;11.88;9.95;;;;;;;;;;4988012;28;20082;-41
2021/10/03 03:32:58;;;;;;;9.90;8.82;;;;;;;;;;4982921;28;20030;-41
2021/10/03 03:35:24;;;;;;;11.93;10.80;;;;;;;;;;4992096;28;20108;-41
2021/10/03 03:37:50;;;;;;;14.75;8.85;;;;;;;;;;4992182;28;20525;-43
2021/10/03 03:40:16;;;;;;;9.20;8.30;;;;;;;;;;4986935;28;20099;-43
2021/10/03 03:42:41;;;;;;;11.50;8.77;;;;;;;;;;4987941;28;20565;-42
2021/10/03 03:45:07;;;;;;;9.73;8.70;;;;;;;;;;4988481;28;20057;-41
2021/10/03 03:47:33;;;;;;;10.77;9.38;;;;;;;;;;4983684;28;20018;-42
2021/10/03 03:49:58;;;;;;;15.20;9.90;;;;;;;;;;4985775;28;20491;-44
2021/10/03 03:52:23;;;;;;;10.57;9.55;;;;;;;;;;4983804;28;20029;-43
2021/10/03 03:54:49;;;;;;;10.35;9.25;;;;;;;;;;4985682;28;20659;-44
2021/10/03 03:57:14;;;;;;;9.75;8.93;;;;;;;;;;4985208;28;20047;-43
2021/10/03 03:59:40;;;;;;;10.82;8.90;;;;;;;;;;4983473;28;20109;-43
2021/10/03 04:02:05;;;;;;;9.15;8.38;;;;;;;;;;4981551;28;20022;-45
2021/10/03 04:04:30;;;;;;;13.13;9.43;;;;;;;;;;4986509;28;20744;-42
2021/10/03 04:06:56;;;;;;;8.25;7.40;;;;;;;;;;4990024;28;20018;-42
2021/10/03 04:09:21;;;;;;;9.65;8.80;;;;;;;;;;4986514;28;20014;-42
2021/10/03 04:11:46;;;;;;;13.80;9.65;;;;;;;;;;4980531;28;20073;-42
2021/10/03 04:14:12;;;;;;;9.93;7.82;;;;;;;;;;4983211;28;20421;-43
2021/10/03 04:16:37;;;;;;;10.07;9.05;;;;;;;;;;4986243;28;20031;-43
2021/10/03 04:19:02;;;;;;;10.05;8.32;;;;;;;;;;4985072;28;20334;-43
2021/10/03 04:21:28;;;;;;;9.18;8.20;;;;;;;;;;4980285;28;20099;-43
2021/10/03 04:23:53;;;;;;;10.32;8.70;;;;;;;;;;4988816;28;20022;-44
2021/10/03 04:26:18;;;;;;;9.40;8.38;;;;;;;;;;4983893;28;20039;-46
2021/10/03 04:28:44;;;;;;;8.45;7.75;;;;;;;;;;4988577;28;20441;-44
2021/10/03 04:31:09;;;;;;;18.58;9.45;;;;;;;;;;4985231;28;20490;-42
2021/10/03 04:33:35;;;;;;;11.00;9.85;;;;;;;;;;4990635;28;20445;-45
2021/10/03 04:36:00;;;;;;;9.60;8.48;;;;;;;;;;4983104;28;20027;-42
2021/10/03 04:38:25;;;;;;;9.93;8.85;;;;;;;;;;4989481;28;20026;-43
2021/10/03 04:40:51;;;;;;;11.20;9.52;;;;;;;;;;4978590;28;20495;-47
2021/10/03 04:43:16;;;;;;;9.40;8.57;;;;;;;;;;4984661;28;20573;-42
2021/10/03 04:45:42;;;;;;;9.63;8.45;;;;;;;;;;4988447;28;20097;-43
2021/10/03 04:48:07;;;;;;;10.15;8.75;;;;;;;;;;4982059;28;20487;-41
2021/10/03 04:50:32;;;;;;;9.40;8.38;;;;;;;;;;4992220;28;20018;-43
2021/10/03 04:52:58;;;;;;;9.13;8.15;;;;;;;;;;4988523;28;20056;-41
2021/10/03 04:55:23;;;;;;;9.60;8.70;;;;;;;;;;4989211;28;20677;-42
2021/10/03 04:57:49;;;;;;;8.52;7.72;;;;;;;;;;4979634;28;20029;-45
2021/10/03 05:00:15;;;;;;;20.50;8.38;;;;;;;;;;4985028;28;20022;-44
2021/10/03 05:02:40;;;;;;;9.48;8.57;;;;;;;;;;4987425;28;20030;-41
2021/10/03 05:05:06;;;;;;;9.43;8.50;;;;;;;;;;4994195;28;20034;-41
2021/10/03 05:07:31;;;;;;;7.85;6.47;;;;;;;;;;4984740;28;20863;-45
2021/10/03 05:09:56;;;;;;;7.40;6.70;;;;;;;;;;4987270;28;20046;-44
2021/10/03 05:12:22;;;;;;;9.02;8.10;;;;;;;;;;4984646;28;20071;-43
2021/10/03 05:14:47;;;;;;;9.00;7.57;;;;;;;;;;4989822;28;20026;-43
2021/10/03 05:17:12;;;;;;;8.75;7.88;;;;;;;;;;4989239;28;20022;-47
2021/10/03 05:19:37;;;;;;;16.35;7.78;;;;;;;;;;4992091;28;20030;-42
2021/10/03 05:22:03;;;;;;;11.32;7.57;;;;;;;;;;4987773;28;20034;-46
2021/10/03 05:24:29;;;;;;;12.57;8.38;;;;;;;;;;4990633;28;20140;-45
2021/10/03 05:26:55;;;;;;;9.18;6.88;;;;;;;;;;4990578;28;20014;-44
2021/10/03 05:29:20;;;;;;;7.25;6.57;;;;;;;;;;4987001;28;20023;-46
2021/10/03 05:31:45;;;;;;;7.55;6.63;;;;;;;;;;4988723;28;20030;-44
2021/10/03 05:34:11;;;;;;;12.63;7.40;;;;;;;;;;4990387;28;20027;-43
2021/10/03 05:36:36;;;;;;;9.10;7.53;;;;;;;;;;4985315;28;20395;-43
2021/10/03 05:39:02;;;;;;;9.13;7.35;;;;;;;;;;4990037;28;20559;-43
2021/10/03 05:41:28;;;;;;;8.68;7.18;;;;;;;;;;4989009;28;20476;-47
2021/10/03 05:43:53;;;;;;;12.20;8.38;;;;;;;;;;4986404;28;20059;-47
2021/10/03 05:46:18;;;;;;;13.13;7.45;;;;;;;;;;4992267;28;20022;-43
2021/10/03 05:48:44;;;;;;;9.52;7.22;;;;;;;;;;4985986;28;20083;-43
2021/10/03 05:51:09;;;;;;;10.52;7.20;;;;;;;;;;4985032;28;20597;-44
2021/10/03 05:53:34;;;;;;;7.65;6.90;;;;;;;;;;4989184;28;20113;-42
2021/10/03 05:56:00;;;;;;;10.05;7.97;;;;;;;;;;4990138;28;20022;-41
2021/10/03 05:58:25;;;;;;;9.43;8.43;;;;;;;;;;4987546;28;20118;-41
2021/10/03 06:00:51;;;;;;;8.30;7.40;;;;;;;;;;4992154;28;20050;-43
2021/10/03 06:03:16;;;;;;;14.45;8.65;;;;;;;;;;4994026;28;20030;-47
2021/10/03 06:05:41;;;;;;;9.43;8.52;;;;;;;;;;4986032;28;20680;-46
2021/10/03 06:08:07;;;;;;;9.55;8.55;;;;;;;;;;4987660;28;20022;-46
2021/10/03 06:10:33;;;;;;;10.38;9.07;;;;;;;;;;4987555;28;20014;-47
2021/10/03 06:12:58;;;;;;;10.95;8.20;;;;;;;;;;4993295;28;20041;-48
2021/10/03 06:15:23;;;;;;;8.88;8.05;;;;;;;;;;4986984;28;20021;-47
2021/10/03 06:17:49;;;;;;;8.63;7.32;;;;;;;;;;4988288;28;20113;-44
2021/10/03 06:20:14;;;;;;;12.10;7.07;;;;;;;;;;4985591;28;20487;-42
2021/10/03 06:22:44;;;;;;;10.75;7.30;;;;;;;;;;4983467;28;20073;-42
2021/10/03 06:25:09;;;;;;;9.68;8.68;;;;;;;;;;4983587;28;20498;-43
2021/10/03 06:27:34;;;;;;;10.70;8.48;;;;;;;;;;4984406;28;20050;-42
2021/10/03 06:30:00;;;;;;;9.35;8.55;;;;;;;;;;4989441;28;20474;-42
2021/10/03 06:32:25;;;;;;;10.00;7.63;;;;;;;;;;4984813;28;20082;-41
2021/10/03 06:34:51;;;;;;;9.50;6.47;;;;;;;;;;4988217;28;20076;-43
2021/10/03 06:37:16;;;;;;;7.57;6.63;;;;;;;;;;4985820;28;20094;-42
2021/10/03 06:39:42;;;;;;;9.10;6.18;;;;;;;;;;4995015;28;20445;-42
2021/10/03 06:42:07;;;;;;;13.95;7.20;;;;;;;;;;4985789;28;20398;-42
2021/10/03 06:44:32;;;;;;;8.32;7.53;;;;;;;;;;4985909;28;20072;-41
2021/10/03 06:46:57;;;;;;;14.00;7.07;;;;;;;;;;4984541;28;20025;-44
2021/10/03 06:49:23;;;;;;;7.82;7.03;;;;;;;;;;4988833;28;20029;-41
2021/10/03 06:51:48;;;;;;;8.55;7.55;;;;;;;;;;4990195;28;20033;-42
2021/10/03 06:54:13;;;;;;;9.10;6.93;;;;;;;;;;4980271;28;20353;-42
2021/10/03 06:56:39;;;;;;;6.90;6.20;;;;;;;;;;4982399;28;20102;-41
2021/10/03 06:59:04;;;;;;;8.95;6.47;;;;;;;;;;4984307;28;20030;-41
2021/10/03 07:01:30;;;;;;;9.73;7.97;;;;;;;;;;4983189;28;20037;-46
2021/10/03 07:03:55;;;;;;;9.15;7.60;;;;;;;;;;4984965;28;20053;-42
2021/10/03 07:06:20;;;;;;;11.38;7.15;;;;;;;;;;4988725;28;20773;-41
2021/10/03 07:08:46;;;;;;;7.78;6.57;;;;;;;;;;4990284;28;20027;-42
2021/10/03 07:11:11;;;;;;;14.30;8.52;;;;;;;;;;4984470;28;20031;-41
2021/10/03 07:13:36;;;;;;;6.97;5.47;;;;;;;;;;4989044;28;20037;-42
2021/10/03 07:16:02;;;;;;;8.40;6.63;;;;;;;;;;4987124;28;20027;-43
2021/10/03 07:18:27;;;;;;;7.68;6.78;;;;;;;;;;4987669;28;20026;-41
2021/10/03 07:20:52;;;;;;;10.88;7.55;;;;;;;;;;4984905;28;20026;-41
2021/10/03 07:23:18;;;;;;;16.10;7.50;;;;;;;;;;4978636;28;20030;-41
2021/10/03 07:25:43;;;;;;;7.80;7.07;;;;;;;;;;4986617;28;20018;-41
2021/10/03 07:28:08;;;;;;;7.95;7.20;;;;;;;;;;4981580;28;20471;-40
2021/10/03 07:30:34;;;;;;;8.43;6.95;;;;;;;;;;4987027;28;20022;-41
2021/10/03 07:32:59;;;;;;;9.52;7.32;;;;;;;;;;4986070;28;20076;-40
2021/10/03 07:35:24;;;;;;;7.72;6.97;;;;;;;;;;4986410;28;20026;-41
2021/10/03 07:37:50;;;;;;;8.30;6.95;;;;;;;;;;4988812;28;20052;-40
2021/10/03 07:40:15;;;;;;;9.40;6.85;;;;;;;;;;4987153;28;20023;-41
2021/10/03 07:42:42;;;;;;;12.65;7.13;;;;;;;;;;4986361;28;20089;-40
2021/10/03 07:45:08;;;;;;;10.52;7.25;;;;;;;;;;4987069;28;20022;-40
2021/10/03 07:47:33;;;;;;;7.88;6.82;;;;;;;;;;4986655;28;20028;-43
2021/10/03 07:49:59;;;;;;;7.60;6.60;;;;;;;;;;4986981;28;20030;-40
2021/10/03 07:52:24;;;;;;;10.32;7.13;;;;;;;;;;4986784;28;20502;-42
2021/10/03 07:54:49;;;;;;;7.55;6.80;;;;;;;;;;4983079;28;20145;-43
2021/10/03 07:57:14;;;;;;;8.27;6.78;;;;;;;;;;4989225;28;20037;-45
2021/10/03 07:59:40;;;;;;;5.93;5.32;;;;;;;;;;4986849;28;20034;-48
2021/10/03 08:02:06;;;;;;;8.35;7.00;;;;;;;;;;4984386;28;20028;-47
2021/10/03 08:04:31;;;;;;;7.53;6.85;;;;;;;;;;4986524;28;20014;-48
2021/10/03 08:06:56;;;;;;;10.57;7.53;;;;;;;;;;4987763;28;20053;-44
2021/10/03 08:09:22;;;;;;;7.75;6.00;;;;;;;;;;4981679;28;20101;-42
2021/10/03 08:11:48;;;;;;;7.95;5.75;;;;;;;;;;4985886;28;20745;-48
2021/10/03 08:14:13;;;;;;;9.00;7.05;;;;;;;;;;4982780;28;20027;-45
2021/10/03 08:16:39;;;;;;;10.60;6.55;;;;;;;;;;4985021;28;20023;-50
2021/10/03 08:19:04;;;;;;;6.45;5.72;;;;;;;;;;4982067;28;20034;-43
2021/10/03 08:21:29;;;;;;;7.60;6.47;;;;;;;;;;4983001;28;20022;-39
2021/10/03 08:23:55;;;;;;;10.02;6.45;;;;;;;;;;4984865;28;20029;-42
2021/10/03 08:26:21;;;;;;;7.15;5.97;;;;;;;;;;4983337;28;20011;-42
2021/10/03 08:28:47;;;;;;;7.53;6.40;;;;;;;;;;4988202;28;20023;-42
2021/10/03 08:31:12;;;;;;;7.22;5.97;;;;;;;;;;4985739;28;20079;-46
2021/10/03 08:33:37;;;;;;;12.00;6.07;;;;;;;;;;4986673;28;20092;-45
2021/10/03 08:36:03;;;;;;;12.18;5.82;;;;;;;;;;4988709;28;20437;-46
2021/10/03 08:38:28;;;;;;;8.77;6.20;;;;;;;;;;4985391;28;20130;-43
2021/10/03 08:40:54;;;;;;;9.82;5.45;;;;;;;;;;5004513;28;20034;-41
2021/10/03 08:43:19;;;;;;;11.00;7.32;;;;;;;;;;5014231;28;20117;-41
2021/10/03 08:45:45;;;;;;;11.20;6.18;;;;;;;;;;4992829;28;20042;-46
2021/10/03 08:48:14;;;;;;;10.48;6.55;;;;;;;;;;4988513;28;20052;-45
2021/10/03 08:50:40;;;;;;;8.20;5.70;;;;;;;;;;5004854;28;20558;-41
2021/10/03 08:53:05;;;;;;;8.38;5.68;;;;;;;;;;4988504;28;20033;-40
2021/10/03 08:55:30;;;;;;;9.23;6.85;;;;;;;;;;5000445;28;20071;-41
2021/10/03 08:57:56;;;;;;;39.85;36.10;;;;;;;;;;4998562;28;21245;-41
2021/10/03 09:00:22;;;;;;;92.47;82.45;;;;;;;;;;5006544;28;20026;-41
2021/10/03 09:02:55;;;;;;;156.63;122.57;;;;;;;;;;5014379;28;20036;-41
2021/10/03 09:05:21;;;;;;;141.55;117.93;;;;;;;;;;4998337;28;20065;-41
2021/10/03 09:07:57;;;;;;;238.70;187.10;;;;;;;;;;4999622;28;20120;-42
2021/10/03 09:10:22;;;;;;;83.07;70.20;;;;;;;;;;4989933;28;20018;-42
2021/10/03 09:12:47;;;;;;;27.52;19.45;;;;;;;;;;4990905;28;20030;-41
2021/10/03 09:15:18;;;;;;;21.88;19.58;;;;;;;;;;4992905;28;20483;-46
2021/10/03 09:17:54;;;;;;;14.00;12.68;;;;;;;;;;4996509;28;20783;-43
2021/10/03 09:20:24;;;;;;;17.98;16.17;;;;;;;;;;4988437;28;20046;-41
2021/10/03 09:23:09;;;;;;;13.55;11.25;;;;;;;;;;4991666;28;20034;-43
2021/10/03 09:25:37;;;;;;;7.05;6.35;;;;;;;;;;4991074;28;20118;-41
2021/10/03 09:28:03;;;;;;;11.90;7.75;;;;;;;;;;4991213;28;20769;-45
2021/10/03 09:30:29;;;;;;;9.15;7.45;;;;;;;;;;4982063;28;20022;-44
2021/10/03 09:32:56;;;;;;;8.52;6.53;;;;;;;;;;4988611;28;20037;-40
2021/10/03 09:35:31;;;;;;;7.45;6.68;;;;;;;;;;4982570;28;20240;-42
2021/10/03 09:37:57;;;;;;;13.25;6.60;;;;;;;;;;4988679;28;20023;-42
2021/10/03 09:40:23;;;;;;;12.77;11.48;;;;;;;;;;4991772;28;20559;-42
2021/10/03 09:43:05;;;;;;;8.07;7.07;;;;;;;;;;4992115;28;20051;-42
2021/10/03 09:45:32;;;;;;;7.28;6.57;;;;;;;;;;4982960;28;20023;-44
2021/10/03 09:48:00;;;;;;;9.52;7.28;;;;;;;;;;4981333;28;20050;-43
2021/10/03 09:50:26;;;;;;;8.35;7.03;;;;;;;;;;4987118;28;20026;-42
2021/10/03 09:52:52;;;;;;;8.02;7.00;;;;;;;;;;4987032;28;20086;-42
2021/10/03 09:55:18;;;;;;;8.27;7.35;;;;;;;;;;4989321;28;20075;-42
2021/10/03 09:57:44;;;;;;;9.13;8.13;;;;;;;;;;4992529;28;20019;-41
2021/10/03 10:00:10;;;;;;;10.57;6.75;;;;;;;;;;4992321;28;20573;-41
2021/10/03 10:02:36;;;;;;;7.82;6.10;;;;;;;;;;4991305;28;20033;-41
2021/10/03 10:05:01;;;;;;;6.30;5.70;;;;;;;;;;4986200;28;20076;-44
2021/10/03 10:07:26;;;;;;;9.50;5.63;;;;;;;;;;4983232;28;20123;-45
2021/10/03 10:09:52;;;;;;;23.55;7.05;;;;;;;;;;4988874;28;20026;-47
2021/10/03 10:12:23;;;;;;;8.52;6.47;;;;;;;;;;4985231;28;20037;-41
2021/10/03 10:14:56;;;;;;;14.82;6.03;;;;;;;;;;4985165;28;20026;-41
2021/10/03 10:17:32;;;;;;;8.25;6.85;;;;;;;;;;4982775;28;20032;-47
2021/10/03 10:20:02;;;;;;;6.85;6.03;;;;;;;;;;4986283;28;20045;-49
2021/10/03 10:22:29;;;;;;;8.55;7.25;;;;;;;;;;4987850;28;20026;-46
2021/10/03 10:24:54;;;;;;;8.35;6.28;;;;;;;;;;4986713;28;20105;-40
2021/10/03 10:27:24;;;;;;;18.13;6.07;;;;;;;;;;4984845;28;20047;-42
2021/10/03 10:29:49;;;;;;;8.60;6.88;;;;;;;;;;4982098;28;20752;-43
2021/10/03 10:32:15;;;;;;;10.93;6.05;;;;;;;;;;4990222;28;20080;-42
2021/10/03 10:34:59;;;;;;;10.25;7.88;;;;;;;;;;4983216;28;20074;-45
2021/10/03 10:37:44;;;;;;;7.50;6.43;;;;;;;;;;4985251;28;20572;-43
2021/10/03 10:40:25;;;;;;;9.45;7.55;;;;;;;;;;4983443;28;20031;-42
2021/10/03 10:42:51;;;;;;;7.93;5.67;;;;;;;;;;4944469;28;1234599;-44
2021/10/03 10:45:29;;;;;;;8.45;6.28;;;;;;;;;;4987159;28;20614;-44
2021/10/03 10:48:10;;;;;;;7.40;6.25;;;;;;;;;;4990630;28;20036;-41
2021/10/03 10:50:51;;;;;;;8.88;5.47;;;;;;;;;;4985833;28;20061;-42
2021/10/03 10:53:16;;;;;;;19.20;6.50;;;;;;;;;;4992870;28;20083;-43
2021/10/03 10:55:42;;;;;;;10.20;5.32;;;;;;;;;;4989998;28;20038;-41
2021/10/03 10:58:09;;;;;;;8.00;6.10;;;;;;;;;;4992022;28;20028;-40
2021/10/03 11:00:46;;;;;;;10.80;6.18;;;;;;;;;;4984863;28;20026;-41
2021/10/03 11:03:11;;;;;;;12.20;6.13;;;;;;;;;;4990765;28;20109;-43
2021/10/03 11:05:37;;;;;;;17.63;7.35;;;;;;;;;;4991538;28;20101;-43
2021/10/03 11:08:14;;;;;;;7.57;6.53;;;;;;;;;;4983764;28;20557;-41
2021/10/03 11:11:09;;;;;;;9.57;7.30;;;;;;;;;;4987452;28;20030;-44
2021/10/03 11:13:40;;;;;;;10.48;7.25;;;;;;;;;;4986002;28;20034;-47
2021/10/03 11:16:24;;;;;;;8.80;6.28;;;;;;;;;;4984886;28;20022;-42
2021/10/03 11:18:49;;;;;;;5.93;5.40;;;;;;;;;;4989914;28;20092;-40
2021/10/03 11:21:19;;;;;;;11.98;6.47;;;;;;;;;;4984406;28;20444;-42
2021/10/03 11:23:45;;;;;;;10.70;7.72;;;;;;;;;;4988440;28;20027;-41
2021/10/03 11:26:10;;;;;;;7.53;6.32;;;;;;;;;;4983730;28;20033;-42
2021/10/03 11:29:03;;;;;;;11.00;6.25;;;;;;;;;;4989052;28;20402;-47
2021/10/03 11:31:35;;;;;;;6.68;5.28;;;;;;;;;;4985516;28;20029;-44
2021/10/03 11:34:01;;;;;;;6.95;6.10;;;;;;;;;;4983028;28;20029;-40
2021/10/03 11:36:27;;;;;;;11.68;5.18;;;;;;;;;;4985627;28;20027;-42
2021/10/03 11:38:52;;;;;;;7.43;6.75;;;;;;;;;;4984241;28;20022;-40
2021/10/03 11:41:18;;;;;;;6.75;5.70;;;;;;;;;;4989155;28;20022;-41
2021/10/03 11:43:43;;;;;;;7.30;6.60;;;;;;;;;;4985977;28;20054;-43
2021/10/03 11:46:08;;;;;;;7.30;5.32;;;;;;;;;;4987058;28;20913;-49
2021/10/03 11:48:34;;;;;;;14.65;7.07;;;;;;;;;;4988332;28;20033;-42
2021/10/03 11:50:59;;;;;;;5.30;4.60;;;;;;;;;;4990246;28;20043;-41
2021/10/03 11:53:29;;;;;;;8.50;5.93;;;;;;;;;;4990791;28;20040;-44
2021/10/03 11:56:05;;;;;;;11.07;6.95;;;;;;;;;;4986683;28;20085;-43
2021/10/03 11:58:34;;;;;;;8.80;6.50;;;;;;;;;;4987861;28;20732;-45
2021/10/03 12:01:04;;;;;;;6.45;5.43;;;;;;;;;;4983628;28;20109;-40
2021/10/03 12:03:30;;;;;;;7.80;4.53;;;;;;;;;;4985839;28;20031;-41
2021/10/03 12:05:56;;;;;;;5.57;5.05;;;;;;;;;;4989859;28;20014;-41
2021/10/03 12:08:21;;;;;;;9.93;6.30;;;;;;;;;;4984821;28;20022;-41
2021/10/03 12:10:54;;;;;;;10.52;7.07;;;;;;;;;;4988427;28;20071;-41
2021/10/03 12:13:19;;;;;;;14.02;7.68;;;;;;;;;;4977607;28;20018;-44
2021/10/03 12:15:50;;;;;;;7.25;4.93;;;;;;;;;;4989078;28;20053;-40
2021/10/03 12:18:24;;;;;;;7.75;5.03;;;;;;;;;;4987497;28;20030;-45
2021/10/03 12:21:00;;;;;;;10.45;6.07;;;;;;;;;;4985768;28;20029;-42
2021/10/03 12:23:40;;;;;;;7.32;6.57;;;;;;;;;;4983791;28;20056;-42
2021/10/03 12:26:14;;;;;;;7.68;6.00;;;;;;;;;;4987266;28;20045;-43
2021/10/03 12:28:49;;;;;;;8.65;6.40;;;;;;;;;;4990518;28;20046;-42
2021/10/03 12:31:32;;;;;;;6.28;5.68;;;;;;;;;;4980649;28;20030;-41
2021/10/03 12:33:57;;;;;;;8.18;5.13;;;;;;;;;;4989628;28;20050;-43
2021/10/03 12:36:22;;;;;;;6.57;5.25;;;;;;;;;;4984986;28;20077;-43
2021/10/03 12:38:48;;;;;;;9.05;6.80;;;;;;;;;;4988207;28;20051;-45
2021/10/03 12:41:13;;;;;;;11.20;7.15;;;;;;;;;;4987442;28;20015;-42
2021/10/03 12:43:48;;;;;;;10.60;6.82;;;;;;;;;;4989020;28;20058;-42
2021/10/03 12:46:13;;;;;;;7.38;6.53;;;;;;;;;;4986215;28;20034;-42
2021/10/03 12:48:39;;;;;;;8.70;6.05;;;;;;;;;;4989521;28;20477;-43
2021/10/03 12:51:04;;;;;;;8.27;6.40;;;;;;;;;;4986808;28;20053;-40
2021/10/03 12:53:29;;;;;;;4.82;3.97;;;;;;;;;;4987950;28;20031;-41
2021/10/03 12:55:54;;;;;;;5.63;5.10;;;;;;;;;;4988182;28;20478;-41
2021/10/03 12:58:20;;;;;;;5.88;5.30;;;;;;;;;;4985428;28;20018;-42
2021/10/03 13:00:45;;;;;;;11.45;6.38;;;;;;;;;;4983152;28;20037;-44
2021/10/03 13:03:10;;;;;;;6.82;5.20;;;;;;;;;;4991185;28;20099;-43
2021/10/03 13:05:36;;;;;;;7.25;5.25;;;;;;;;;;4985087;28;20056;-43
2021/10/03 13:08:01;;;;;;;6.72;6.07;;;;;;;;;;4988057;28;20035;-42
2021/10/03 13:10:27;;;;;;;13.50;5.32;;;;;;;;;;4984178;28;20112;-42
2021/10/03 13:12:52;;;;;;;7.82;5.72;;;;;;;;;;4987909;28;20018;-41
2021/10/03 13:15:17;;;;;;;7.93;5.18;;;;;;;;;;4987339;28;20018;-40
2021/10/03 13:17:42;;;;;;;10.27;5.78;;;;;;;;;;4985320;28;20022;-41
2021/10/03 13:20:08;;;;;;;6.45;5.80;;;;;;;;;;4986532;28;20102;-41
2021/10/03 13:22:34;;;;;;;11.90;5.93;;;;;;;;;;4985858;28;20030;-40
2021/10/03 13:24:59;;;;;;;9.55;8.18;;;;;;;;;;4985838;28;20492;-41
2021/10/03 13:27:24;;;;;;;8.05;6.00;;;;;;;;;;4990430;28;20496;-42
2021/10/03 13:29:50;;;;;;;9.20;7.05;;;;;;;;;;4983870;28;20097;-40
2021/10/03 13:32:18;;;;;;;16.33;8.50;;;;;;;;;;4987456;28;20505;-44
2021/10/03 13:34:43;;;;;;;6.50;5.32;;;;;;;;;;4990336;28;20030;-42
2021/10/03 13:37:09;;;;;;;11.52;7.40;;;;;;;;;;4984997;28;20506;-40
2021/10/03 13:39:34;;;;;;;11.52;7.50;;;;;;;;;;4986202;28;20026;-46
2021/10/03 13:41:59;;;;;;;21.55;8.88;;;;;;;;;;4984154;28;20059;-41
2021/10/03 13:44:24;;;;;;;8.73;6.38;;;;;;;;;;4985027;28;20050;-43
2021/10/03 13:46:50;;;;;;;6.43;5.70;;;;;;;;;;4992758;28;20086;-42
2021/10/03 13:49:15;;;;;;;8.32;7.63;;;;;;;;;;4993444;28;20026;-44
2021/10/03 13:51:40;;;;;;;9.05;8.18;;;;;;;;;;4987664;28;20034;-40
2021/10/03 13:54:06;;;;;;;12.05;8.48;;;;;;;;;;4992323;28;20022;-44
2021/10/03 13:56:31;;;;;;;13.15;8.25;;;;;;;;;;4991076;28;20053;-43
2021/10/03 13:58:56;;;;;;;9.13;7.28;;;;;;;;;;4985593;28;20041;-43
2021/10/03 14:01:22;;;;;;;14.32;7.88;;;;;;;;;;4989582;28;20054;-41
2021/10/03 14:03:48;;;;;;;7.03;6.28;;;;;;;;;;4986892;28;20671;-42
2021/10/03 14:06:14;;;;;;;8.85;6.25;;;;;;;;;;4990813;28;20042;-43
2021/10/03 14:08:39;;;;;;;11.15;7.57;;;;;;;;;;4986873;28;20031;-41
2021/10/03 14:11:04;;;;;;;18.77;7.70;;;;;;;;;;4988465;28;20426;-42
2021/10/03 14:13:30;;;;;;;10.00;7.68;;;;;;;;;;4988379;28;20045;-41
2021/10/03 14:15:56;;;;;;;12.63;8.20;;;;;;;;;;4991858;28;20030;-41
2021/10/03 14:18:21;;;;;;;8.70;7.75;;;;;;;;;;4988384;28;20403;-43
2021/10/03 14:20:47;;;;;;;9.13;7.95;;;;;;;;;;4983661;28;20451;-41
2021/10/03 14:23:12;;;;;;;13.63;8.38;;;;;;;;;;4988910;28;20022;-44
2021/10/03 14:25:39;;;;;;;15.32;9.45;;;;;;;;;;4992632;28;20029;-42
2021/10/03 14:28:05;;;;;;;16.02;10.07;;;;;;;;;;4986412;28;20045;-41
2021/10/03 14:30:30;;;;;;;8.98;8.10;;;;;;;;;;4988617;28;20018;-46